CST,Max TemperatureF,Mean TemperatureF,Min TemperatureF,Max Dew PointF,MeanDew PointF,Min DewpointF,Max Humidity, Mean Humidity, Min Humidity, Max Sea Level PressureIn, Mean Sea Level PressureIn, Min Sea Level PressureIn, Max VisibilityMiles, Mean VisibilityMiles, Min VisibilityMiles, Max Wind SpeedMPH, Mean Wind SpeedMPH, Max Gust SpeedMPH,PrecipitationIn, CloudCover, Events, WindDirDegrees
2012-11-1,84,67,50,59,53,46,94,70,28,30.09,30.02,29.96,10,10,7,9,1,,0.00,0,,243
2012-11-2,82,68,53,64,57,54,100,73,37,30.06,30.00,29.94,10,9,0,13,2,18,0.00,2,Fog,174
2012-11-3,77,68,59,68,61,54,100,89,65,30.10,30.05,30.01,10,8,0,14,5,23,0.07,3,Fog-Rain-Thunderstorm,132
2012-11-4,77,65,53,63,58,54,100,85,54,30.13,30.08,30.03,10,6,0,9,1,,0.00,3,Fog,290
2012-11-5,80,65,50,61,53,43,100,72,42,30.10,30.04,29.96,10,9,0,15,1,22,0.00,1,Fog,329
2012-11-6,69,56,42,46,41,36,93,65,28,30.20,30.12,30.08,10,10,10,4,0,,0.00,0,,320
2012-11-7,77,59,41,46,40,34,100,57,21,30.19,30.12,30.08,10,10,7,0,0,,0.00,0,,-1
2012-11-8,80,65,50,57,51,41,88,63,37,30.17,30.09,30.02,10,10,10,18,4,22,0.00,1,,151
2012-11-9,80,70,59,63,55,45,94,67,30,30.11,30.05,29.98,10,10,10,21,10,29,0.00,2,,148
2012-11-10,80,70,59,63,58,54,94,66,42,30.06,29.97,29.91,10,10,10,21,11,30,0.00,2,,153
2012-11-11,80,66,53,68,61,52,94,77,54,30.21,29.96,29.87,10,10,7,16,8,26,0.32,7,Rain,161
2012-11-12,59,46,33,52,33,23,94,63,25,30.50,30.41,30.22,10,10,10,16,4,23,0.02,1,,356
2012-11-13,57,44,30,36,29,23,100,59,27,30.52,30.43,30.35,10,10,3,8,0,,0.00,2,Rain-Thunderstorm,63
2012-11-14,62,50,37,37,31,25,87,54,26,30.44,30.36,30.29,10,10,7,0,0,,0.00,2,,-1
2012-11-15,66,49,32,37,32,30,100,58,26,30.34,30.29,30.21,10,10,10,0,0,,0.00,2,,-1
2012-11-16,62,48,35,34,30,21,87,49,20,30.42,30.35,30.30,10,10,7,7,0,,0.00,2,,8
2012-11-17,66,49,32,36,32,28,93,67,24,30.41,30.34,30.29,10,10,10,0,0,,0.00,0,,-1
2012-11-18,69,51,33,43,36,32,93,60,28,30.33,30.27,30.21,10,10,5,10,1,16,0.00,0,,156
2012-11-19,73,60,46,52,47,41,87,66,44,30.28,30.22,30.15,10,10,7,4,0,,0.00,3,,160
2012-11-20,77,64,50,55,52,45,100,71,44,30.23,30.18,30.12,10,10,5,0,0,,0.00,1,,-1
2012-11-21,82,63,44,54,43,23,100,59,11,30.28,30.21,30.16,10,10,5,8,0,,0.03,0,Thunderstorm,155
2012-11-22,80,66,51,52,45,36,77,49,20,30.19,30.13,30.07,10,10,5,13,4,20,0.00,0,,146
2012-11-23,73,64,55,54,38,1,77,43,9,30.40,30.27,30.14,10,10,10,16,4,24,0.00,5,,2
2012-11-24,66,52,37,28,11,-35,60,30,4,30.44,30.32,30.16,10,9,2,6,0,,0.00,0,,180
2012-11-25,78,60,42,54,36,23,64,41,18,30.16,30.03,29.93,10,10,5,17,4,24,0.00,0,,153
2012-11-26,87,74,60,59,51,37,73,50,22,30.18,29.99,29.91,10,10,4,18,5,26,0.20,3,Rain-Thunderstorm,173
2012-11-27,59,49,39,36,32,27,76,47,35,30.40,30.32,30.20,10,10,7,22,11,28,0.00,5,,333
2012-11-28,69,51,33,41,32,21,87,57,16,30.47,30.37,30.29,10,9,5,0,0,,0.00,0,,-1
2012-11-29,73,55,37,50,41,32,82,60,33,30.31,30.23,30.14,10,8,0,12,1,16,0.00,2,,144
2012-11-30,80,70,60,61,55,50,77,62,34,30.20,30.13,30.05,10,7,2,9,2,,0.00,5,,141